sensor_id;sensor_type;location;lat;lon;timestamp;P1;durP1;ratioP1;P2;durP2;ratioP2
75772;SDS011;64381;0.000;0.000;2023-07-08T00:00:09;9.50;;;4.70;;
75772;SDS011;64381;0.000;0.000;2023-07-08T00:02:36;9.00;;;4.50;;
75772;SDS011;64381;0.000;0.000;2023-07-08T00:05:01;9.73;;;4.90;;
75772;SDS011;64381;0.000;0.000;2023-07-08T00:07:27;8.73;;;4.47;;
75772;SDS011;64381;0.000;0.000;2023-07-08T00:09:52;9.30;;;4.83;;
75772;SDS011;64381;0.000;0.000;2023-07-08T00:12:17;9.63;;;4.90;;
75772;SDS011;64381;0.000;0.000;2023-07-08T00:14:42;9.97;;;4.90;;
75772;SDS011;64381;0.000;0.000;2023-07-08T00:17:09;9.60;;;4.97;;
75772;SDS011;64381;0.000;0.000;2023-07-08T00:19:36;8.75;;;4.90;;
75772;SDS011;64381;0.000;0.000;2023-07-08T00:22:01;9.97;;;4.90;;
75772;SDS011;64381;0.000;0.000;2023-07-08T00:24:26;9.57;;;4.80;;
75772;SDS011;64381;0.000;0.000;2023-07-08T00:26:51;9.43;;;5.00;;
75772;SDS011;64381;0.000;0.000;2023-07-08T00:29:17;9.80;;;5.00;;
75772;SDS011;64381;0.000;0.000;2023-07-08T00:31:42;10.63;;;4.87;;
75772;SDS011;64381;0.000;0.000;2023-07-08T00:34:07;9.57;;;5.30;;
75772;SDS011;64381;0.000;0.000;2023-07-08T00:36:32;9.00;;;5.03;;
75772;SDS011;64381;0.000;0.000;2023-07-08T00:38:59;8.18;;;4.60;;
75772;SDS011;64381;0.000;0.000;2023-07-08T00:41:29;9.53;;;5.23;;
75772;SDS011;64381;0.000;0.000;2023-07-08T00:43:58;8.82;;;4.90;;
75772;SDS011;64381;0.000;0.000;2023-07-08T00:48:53;8.93;;;4.87;;
75772;SDS011;64381;0.000;0.000;2023-07-08T00:51:22;9.98;;;4.80;;
75772;SDS011;64381;0.000;0.000;2023-07-08T00:53:48;8.75;;;4.60;;
75772;SDS011;64381;0.000;0.000;2023-07-08T00:56:35;9.50;;;4.70;;
75772;SDS011;64381;0.000;0.000;2023-07-08T00:59:07;8.98;;;4.47;;
75772;SDS011;64381;0.000;0.000;2023-07-08T01:01:42;9.10;;;5.20;;
75772;SDS011;64381;0.000;0.000;2023-07-08T01:04:20;10.27;;;5.00;;
75772;SDS011;64381;0.000;0.000;2023-07-08T01:06:54;9.02;;;5.03;;
75772;SDS011;64381;0.000;0.000;2023-07-08T01:09:21;9.70;;;4.95;;
75772;SDS011;64381;0.000;0.000;2023-07-08T01:11:46;10.33;;;5.00;;
75772;SDS011;64381;0.000;0.000;2023-07-08T01:14:12;10.43;;;5.33;;
75772;SDS011;64381;0.000;0.000;2023-07-08T01:16:42;9.65;;;5.00;;
75772;SDS011;64381;0.000;0.000;2023-07-08T01:19:09;9.77;;;4.90;;
75772;SDS011;64381;0.000;0.000;2023-07-08T01:24:10;10.47;;;4.70;;
75772;SDS011;64381;0.000;0.000;2023-07-08T01:26:37;9.48;;;4.70;;
75772;SDS011;64381;0.000;0.000;2023-07-08T01:29:06;8.73;;;4.63;;
75772;SDS011;64381;0.000;0.000;2023-07-08T01:31:31;9.93;;;4.87;;
75772;SDS011;64381;0.000;0.000;2023-07-08T01:33:56;9.33;;;4.87;;
75772;SDS011;64381;0.000;0.000;2023-07-08T01:36:22;9.43;;;5.27;;
75772;SDS011;64381;0.000;0.000;2023-07-08T01:38:47;8.57;;;4.63;;
75772;SDS011;64381;0.000;0.000;2023-07-08T01:41:13;9.30;;;4.50;;
75772;SDS011;64381;0.000;0.000;2023-07-08T01:43:40;9.40;;;5.00;;
75772;SDS011;64381;0.000;0.000;2023-07-08T01:46:07;8.70;;;4.60;;
75772;SDS011;64381;0.000;0.000;2023-07-08T01:48:40;9.75;;;5.18;;
75772;SDS011;64381;0.000;0.000;2023-07-08T01:51:09;10.75;;;5.05;;
75772;SDS011;64381;0.000;0.000;2023-07-08T01:53:36;9.48;;;4.88;;
75772;SDS011;64381;0.000;0.000;2023-07-08T01:56:04;10.50;;;4.70;;
75772;SDS011;64381;0.000;0.000;2023-07-08T01:58:29;10.18;;;4.85;;
75772;SDS011;64381;0.000;0.000;2023-07-08T02:00:55;10.10;;;5.07;;
75772;SDS011;64381;0.000;0.000;2023-07-08T02:03:20;8.95;;;4.95;;
75772;SDS011;64381;0.000;0.000;2023-07-08T02:05:46;9.73;;;5.10;;
75772;SDS011;64381;0.000;0.000;2023-07-08T02:08:11;8.87;;;4.67;;
75772;SDS011;64381;0.000;0.000;2023-07-08T02:10:37;9.43;;;4.80;;
75772;SDS011;64381;0.000;0.000;2023-07-08T02:13:04;9.52;;;4.65;;
75772;SDS011;64381;0.000;0.000;2023-07-08T02:15:29;10.57;;;4.97;;
75772;SDS011;64381;0.000;0.000;2023-07-08T02:17:54;8.57;;;4.57;;
75772;SDS011;64381;0.000;0.000;2023-07-08T02:20:19;10.77;;;4.90;;
75772;SDS011;64381;0.000;0.000;2023-07-08T02:22:45;9.63;;;4.67;;
75772;SDS011;64381;0.000;0.000;2023-07-08T02:25:10;9.57;;;4.87;;
75772;SDS011;64381;0.000;0.000;2023-07-08T02:27:36;9.93;;;4.70;;
75772;SDS011;64381;0.000;0.000;2023-07-08T02:30:01;9.30;;;4.72;;
75772;SDS011;64381;0.000;0.000;2023-07-08T02:32:28;8.53;;;4.50;;
75772;SDS011;64381;0.000;0.000;2023-07-08T02:34:53;8.63;;;4.57;;
75772;SDS011;64381;0.000;0.000;2023-07-08T02:37:18;9.33;;;4.67;;
75772;SDS011;64381;0.000;0.000;2023-07-08T02:39:43;9.83;;;5.10;;
75772;SDS011;64381;0.000;0.000;2023-07-08T02:42:09;8.83;;;4.70;;
75772;SDS011;64381;0.000;0.000;2023-07-08T02:44:34;9.67;;;4.77;;
75772;SDS011;64381;0.000;0.000;2023-07-08T02:46:59;9.07;;;4.90;;
75772;SDS011;64381;0.000;0.000;2023-07-08T02:49:24;9.53;;;4.70;;
75772;SDS011;64381;0.000;0.000;2023-07-08T02:51:49;8.57;;;4.93;;
75772;SDS011;64381;0.000;0.000;2023-07-08T02:54:15;10.27;;;4.67;;
75772;SDS011;64381;0.000;0.000;2023-07-08T02:56:40;8.77;;;4.50;;
75772;SDS011;64381;0.000;0.000;2023-07-08T02:59:05;9.30;;;4.40;;
75772;SDS011;64381;0.000;0.000;2023-07-08T03:01:30;8.00;;;4.40;;
75772;SDS011;64381;0.000;0.000;2023-07-08T03:03:55;9.43;;;4.57;;
75772;SDS011;64381;0.000;0.000;2023-07-08T03:06:21;8.57;;;4.40;;
75772;SDS011;64381;0.000;0.000;2023-07-08T03:08:46;8.47;;;4.87;;
75772;SDS011;64381;0.000;0.000;2023-07-08T03:11:11;9.87;;;4.90;;
75772;SDS011;64381;0.000;0.000;2023-07-08T03:13:36;10.30;;;4.80;;
75772;SDS011;64381;0.000;0.000;2023-07-08T03:16:02;9.50;;;4.77;;
75772;SDS011;64381;0.000;0.000;2023-07-08T03:18:28;9.63;;;4.73;;
75772;SDS011;64381;0.000;0.000;2023-07-08T03:20:54;8.90;;;4.75;;
75772;SDS011;64381;0.000;0.000;2023-07-08T03:23:21;10.15;;;4.72;;
75772;SDS011;64381;0.000;0.000;2023-07-08T03:25:47;8.80;;;4.63;;
75772;SDS011;64381;0.000;0.000;2023-07-08T03:28:12;9.83;;;5.10;;
75772;SDS011;64381;0.000;0.000;2023-07-08T03:30:37;9.43;;;4.60;;
75772;SDS011;64381;0.000;0.000;2023-07-08T03:33:02;8.50;;;4.67;;
75772;SDS011;64381;0.000;0.000;2023-07-08T03:35:28;8.97;;;4.57;;
75772;SDS011;64381;0.000;0.000;2023-07-08T03:37:53;8.63;;;4.83;;
75772;SDS011;64381;0.000;0.000;2023-07-08T03:40:18;9.53;;;4.77;;
75772;SDS011;64381;0.000;0.000;2023-07-08T03:42:43;9.57;;;4.50;;
75772;SDS011;64381;0.000;0.000;2023-07-08T03:45:09;8.03;;;4.07;;
75772;SDS011;64381;0.000;0.000;2023-07-08T03:47:34;9.02;;;4.43;;
75772;SDS011;64381;0.000;0.000;2023-07-08T03:49:59;9.33;;;4.60;;
75772;SDS011;64381;0.000;0.000;2023-07-08T03:52:25;8.87;;;4.70;;
75772;SDS011;64381;0.000;0.000;2023-07-08T03:54:50;8.70;;;4.40;;
75772;SDS011;64381;0.000;0.000;2023-07-08T03:57:15;9.37;;;4.83;;
75772;SDS011;64381;0.000;0.000;2023-07-08T03:59:40;9.10;;;4.67;;
75772;SDS011;64381;0.000;0.000;2023-07-08T04:02:08;8.63;;;4.60;;
75772;SDS011;64381;0.000;0.000;2023-07-08T04:04:35;8.50;;;4.30;;
75772;SDS011;64381;0.000;0.000;2023-07-08T04:07:00;9.53;;;4.50;;
75772;SDS011;64381;0.000;0.000;2023-07-08T04:09:25;8.47;;;4.33;;
75772;SDS011;64381;0.000;0.000;2023-07-08T04:11:50;9.43;;;4.63;;
75772;SDS011;64381;0.000;0.000;2023-07-08T04:14:16;8.50;;;4.77;;
75772;SDS011;64381;0.000;0.000;2023-07-08T04:16:45;10.80;;;4.80;;
75772;SDS011;64381;0.000;0.000;2023-07-08T04:19:15;9.48;;;4.90;;
75772;SDS011;64381;0.000;0.000;2023-07-08T04:21:41;8.47;;;4.60;;
75772;SDS011;64381;0.000;0.000;2023-07-08T04:24:09;9.00;;;4.60;;
75772;SDS011;64381;0.000;0.000;2023-07-08T04:26:35;7.80;;;4.30;;
75772;SDS011;64381;0.000;0.000;2023-07-08T04:29:01;9.67;;;4.93;;
75772;SDS011;64381;0.000;0.000;2023-07-08T04:31:26;8.65;;;4.60;;
75772;SDS011;64381;0.000;0.000;2023-07-08T04:33:52;8.70;;;4.30;;
75772;SDS011;64381;0.000;0.000;2023-07-08T04:36:17;8.03;;;4.20;;
75772;SDS011;64381;0.000;0.000;2023-07-08T04:38:42;8.97;;;4.50;;
75772;SDS011;64381;0.000;0.000;2023-07-08T04:41:08;9.03;;;5.30;;
75772;SDS011;64381;0.000;0.000;2023-07-08T04:43:33;10.30;;;4.93;;
75772;SDS011;64381;0.000;0.000;2023-07-08T04:45:58;8.33;;;4.47;;
75772;SDS011;64381;0.000;0.000;2023-07-08T04:48:23;8.18;;;4.55;;
75772;SDS011;64381;0.000;0.000;2023-07-08T04:50:50;7.87;;;4.23;;
75772;SDS011;64381;0.000;0.000;2023-07-08T04:53:16;8.83;;;4.60;;
75772;SDS011;64381;0.000;0.000;2023-07-08T04:55:43;8.90;;;4.47;;
75772;SDS011;64381;0.000;0.000;2023-07-08T04:58:11;9.02;;;4.60;;
75772;SDS011;64381;0.000;0.000;2023-07-08T05:00:36;8.40;;;4.40;;
75772;SDS011;64381;0.000;0.000;2023-07-08T05:03:01;8.80;;;4.50;;
75772;SDS011;64381;0.000;0.000;2023-07-08T05:05:27;9.63;;;4.13;;
75772;SDS011;64381;0.000;0.000;2023-07-08T05:07:52;10.07;;;5.00;;
75772;SDS011;64381;0.000;0.000;2023-07-08T05:10:18;8.47;;;4.63;;
75772;SDS011;64381;0.000;0.000;2023-07-08T05:12:44;9.27;;;4.80;;
75772;SDS011;64381;0.000;0.000;2023-07-08T05:15:10;8.98;;;4.78;;
75772;SDS011;64381;0.000;0.000;2023-07-08T05:17:37;10.73;;;4.70;;
75772;SDS011;64381;0.000;0.000;2023-07-08T05:20:03;8.90;;;4.93;;
75772;SDS011;64381;0.000;0.000;2023-07-08T05:22:29;9.38;;;4.82;;
75772;SDS011;64381;0.000;0.000;2023-07-08T05:24:54;9.33;;;4.57;;
75772;SDS011;64381;0.000;0.000;2023-07-08T05:27:20;9.20;;;4.63;;
75772;SDS011;64381;0.000;0.000;2023-07-08T05:29:46;9.93;;;4.60;;
75772;SDS011;64381;0.000;0.000;2023-07-08T05:32:11;9.48;;;4.72;;
75772;SDS011;64381;0.000;0.000;2023-07-08T05:34:37;9.23;;;4.63;;
75772;SDS011;64381;0.000;0.000;2023-07-08T05:37:02;10.40;;;4.77;;
75772;SDS011;64381;0.000;0.000;2023-07-08T05:39:28;9.57;;;4.87;;
75772;SDS011;64381;0.000;0.000;2023-07-08T05:41:54;9.07;;;4.80;;
75772;SDS011;64381;0.000;0.000;2023-07-08T05:44:19;9.40;;;4.40;;
75772;SDS011;64381;0.000;0.000;2023-07-08T05:46:45;10.17;;;5.00;;
75772;SDS011;64381;0.000;0.000;2023-07-08T05:49:10;9.97;;;4.60;;
75772;SDS011;64381;0.000;0.000;2023-07-08T05:51:36;9.45;;;4.70;;
75772;SDS011;64381;0.000;0.000;2023-07-08T05:54:01;9.17;;;4.67;;
75772;SDS011;64381;0.000;0.000;2023-07-08T05:56:27;10.80;;;5.03;;
75772;SDS011;64381;0.000;0.000;2023-07-08T05:58:52;9.97;;;4.73;;
75772;SDS011;64381;0.000;0.000;2023-07-08T06:01:17;9.67;;;4.43;;
75772;SDS011;64381;0.000;0.000;2023-07-08T06:03:42;8.57;;;4.40;;
75772;SDS011;64381;0.000;0.000;2023-07-08T06:06:08;11.27;;;5.00;;
75772;SDS011;64381;0.000;0.000;2023-07-08T06:08:33;9.70;;;4.80;;
75772;SDS011;64381;0.000;0.000;2023-07-08T06:10:58;9.03;;;4.50;;
75772;SDS011;64381;0.000;0.000;2023-07-08T06:13:23;8.57;;;4.53;;
75772;SDS011;64381;0.000;0.000;2023-07-08T06:15:48;10.37;;;4.47;;
75772;SDS011;64381;0.000;0.000;2023-07-08T06:18:14;10.27;;;4.53;;
75772;SDS011;64381;0.000;0.000;2023-07-08T06:20:39;10.80;;;4.63;;
75772;SDS011;64381;0.000;0.000;2023-07-08T06:23:04;9.23;;;4.90;;
75772;SDS011;64381;0.000;0.000;2023-07-08T06:25:30;9.33;;;5.10;;
75772;SDS011;64381;0.000;0.000;2023-07-08T06:27:56;9.60;;;4.95;;
75772;SDS011;64381;0.000;0.000;2023-07-08T06:30:21;8.87;;;4.60;;
75772;SDS011;64381;0.000;0.000;2023-07-08T06:32:46;9.33;;;4.37;;
75772;SDS011;64381;0.000;0.000;2023-07-08T06:35:12;9.33;;;4.70;;
75772;SDS011;64381;0.000;0.000;2023-07-08T06:37:37;10.30;;;4.80;;
75772;SDS011;64381;0.000;0.000;2023-07-08T06:40:02;9.73;;;4.97;;
75772;SDS011;64381;0.000;0.000;2023-07-08T06:42:27;8.23;;;4.60;;
75772;SDS011;64381;0.000;0.000;2023-07-08T06:44:53;10.97;;;5.07;;
75772;SDS011;64381;0.000;0.000;2023-07-08T06:47:18;8.90;;;4.50;;
75772;SDS011;64381;0.000;0.000;2023-07-08T06:49:43;8.82;;;4.82;;
75772;SDS011;64381;0.000;0.000;2023-07-08T06:52:09;9.20;;;4.80;;
75772;SDS011;64381;0.000;0.000;2023-07-08T06:54:34;8.77;;;4.87;;
75772;SDS011;64381;0.000;0.000;2023-07-08T06:56:59;8.93;;;4.60;;
75772;SDS011;64381;0.000;0.000;2023-07-08T06:59:24;9.50;;;4.77;;
75772;SDS011;64381;0.000;0.000;2023-07-08T07:01:50;7.97;;;4.20;;
75772;SDS011;64381;0.000;0.000;2023-07-08T07:04:15;9.17;;;4.50;;
75772;SDS011;64381;0.000;0.000;2023-07-08T07:06:40;9.17;;;4.60;;
75772;SDS011;64381;0.000;0.000;2023-07-08T07:09:05;10.97;;;4.50;;
75772;SDS011;64381;0.000;0.000;2023-07-08T07:11:30;9.23;;;4.37;;
75772;SDS011;64381;0.000;0.000;2023-07-08T07:13:56;9.50;;;4.70;;
75772;SDS011;64381;0.000;0.000;2023-07-08T07:16:21;8.13;;;4.37;;
75772;SDS011;64381;0.000;0.000;2023-07-08T07:18:46;8.50;;;4.40;;
75772;SDS011;64381;0.000;0.000;2023-07-08T07:21:11;9.47;;;4.40;;
75772;SDS011;64381;0.000;0.000;2023-07-08T07:23:37;9.20;;;4.33;;
75772;SDS011;64381;0.000;0.000;2023-07-08T07:26:02;9.40;;;4.93;;
75772;SDS011;64381;0.000;0.000;2023-07-08T07:28:27;9.13;;;4.97;;
75772;SDS011;64381;0.000;0.000;2023-07-08T07:30:59;8.47;;;4.53;;
75772;SDS011;64381;0.000;0.000;2023-07-08T07:33:25;11.18;;;4.63;;
75772;SDS011;64381;0.000;0.000;2023-07-08T07:35:51;9.43;;;4.47;;
75772;SDS011;64381;0.000;0.000;2023-07-08T07:38:16;7.83;;;4.40;;
75772;SDS011;64381;0.000;0.000;2023-07-08T07:40:41;9.17;;;4.43;;
75772;SDS011;64381;0.000;0.000;2023-07-08T07:43:07;9.65;;;4.50;;
75772;SDS011;64381;0.000;0.000;2023-07-08T07:45:32;7.70;;;4.10;;
75772;SDS011;64381;0.000;0.000;2023-07-08T07:47:58;9.70;;;4.37;;
75772;SDS011;64381;0.000;0.000;2023-07-08T07:50:23;9.77;;;4.60;;
75772;SDS011;64381;0.000;0.000;2023-07-08T07:52:49;8.68;;;4.43;;
75772;SDS011;64381;0.000;0.000;2023-07-08T07:55:14;8.60;;;4.30;;
75772;SDS011;64381;0.000;0.000;2023-07-08T07:57:39;7.87;;;4.27;;
75772;SDS011;64381;0.000;0.000;2023-07-08T08:00:05;7.03;;;3.80;;
75772;SDS011;64381;0.000;0.000;2023-07-08T08:02:30;9.23;;;4.07;;
75772;SDS011;64381;0.000;0.000;2023-07-08T08:04:56;8.63;;;4.13;;
75772;SDS011;64381;0.000;0.000;2023-07-08T08:07:21;8.50;;;4.20;;
75772;SDS011;64381;0.000;0.000;2023-07-08T08:09:46;9.40;;;4.10;;
75772;SDS011;64381;0.000;0.000;2023-07-08T08:12:11;8.23;;;4.17;;
75772;SDS011;64381;0.000;0.000;2023-07-08T08:14:37;7.80;;;3.92;;
75772;SDS011;64381;0.000;0.000;2023-07-08T08:17:03;8.80;;;4.63;;
75772;SDS011;64381;0.000;0.000;2023-07-08T08:19:29;8.07;;;3.92;;
75772;SDS011;64381;0.000;0.000;2023-07-08T08:21:54;9.27;;;4.40;;
75772;SDS011;64381;0.000;0.000;2023-07-08T08:24:20;7.57;;;3.93;;
75772;SDS011;64381;0.000;0.000;2023-07-08T08:26:45;8.10;;;4.10;;
75772;SDS011;64381;0.000;0.000;2023-07-08T08:29:10;9.10;;;4.30;;
75772;SDS011;64381;0.000;0.000;2023-07-08T08:31:35;7.93;;;3.97;;
75772;SDS011;64381;0.000;0.000;2023-07-08T08:34:00;8.20;;;3.80;;
75772;SDS011;64381;0.000;0.000;2023-07-08T08:36:25;9.30;;;4.57;;
75772;SDS011;64381;0.000;0.000;2023-07-08T08:38:51;8.30;;;4.10;;
75772;SDS011;64381;0.000;0.000;2023-07-08T08:41:17;9.13;;;4.10;;
75772;SDS011;64381;0.000;0.000;2023-07-08T08:43:53;8.17;;;4.13;;
75772;SDS011;64381;0.000;0.000;2023-07-08T08:48:57;7.53;;;3.93;;
75772;SDS011;64381;0.000;0.000;2023-07-08T08:51:38;7.47;;;3.90;;
75772;SDS011;64381;0.000;0.000;2023-07-08T08:54:03;8.13;;;4.17;;
75772;SDS011;64381;0.000;0.000;2023-07-08T08:56:30;7.40;;;4.03;;
75772;SDS011;64381;0.000;0.000;2023-07-08T08:59:07;9.60;;;4.55;;
75772;SDS011;64381;0.000;0.000;2023-07-08T09:01:47;6.72;;;3.75;;
75772;SDS011;64381;0.000;0.000;2023-07-08T09:04:15;9.45;;;4.68;;
75772;SDS011;64381;0.000;0.000;2023-07-08T09:06:45;7.90;;;3.88;;
75772;SDS011;64381;0.000;0.000;2023-07-08T09:12:03;8.55;;;4.10;;
75772;SDS011;64381;0.000;0.000;2023-07-08T09:14:30;7.77;;;3.90;;
75772;SDS011;64381;0.000;0.000;2023-07-08T09:22:32;8.20;;;3.90;;
75772;SDS011;64381;0.000;0.000;2023-07-08T09:25:07;8.15;;;4.28;;
75772;SDS011;64381;0.000;0.000;2023-07-08T09:27:54;7.63;;;3.80;;
75772;SDS011;64381;0.000;0.000;2023-07-08T09:30:20;7.73;;;3.70;;
75772;SDS011;64381;0.000;0.000;2023-07-08T09:32:47;8.30;;;4.03;;
75772;SDS011;64381;0.000;0.000;2023-07-08T09:35:26;7.80;;;3.92;;
75772;SDS011;64381;0.000;0.000;2023-07-08T09:37:53;8.38;;;3.92;;
75772;SDS011;64381;0.000;0.000;2023-07-08T09:42:34;7.67;;;3.70;;
75772;SDS011;64381;0.000;0.000;2023-07-08T09:45:01;7.20;;;3.80;;
75772;SDS011;64381;0.000;0.000;2023-07-08T09:47:30;7.47;;;3.90;;
75772;SDS011;64381;0.000;0.000;2023-07-08T09:49:59;7.65;;;3.80;;
75772;SDS011;64381;0.000;0.000;2023-07-08T09:52:28;6.88;;;3.72;;
75772;SDS011;64381;0.000;0.000;2023-07-08T09:54:54;7.50;;;3.70;;
75772;SDS011;64381;0.000;0.000;2023-07-08T09:57:27;7.65;;;3.65;;
75772;SDS011;64381;0.000;0.000;2023-07-08T09:59:56;8.77;;;4.00;;
75772;SDS011;64381;0.000;0.000;2023-07-08T10:02:38;8.15;;;4.00;;
75772;SDS011;64381;0.000;0.000;2023-07-08T10:05:19;7.85;;;3.83;;
75772;SDS011;64381;0.000;0.000;2023-07-08T10:07:53;6.40;;;3.30;;
75772;SDS011;64381;0.000;0.000;2023-07-08T10:10:22;7.25;;;3.70;;
75772;SDS011;64381;0.000;0.000;2023-07-08T10:12:55;7.87;;;3.67;;
75772;SDS011;64381;0.000;0.000;2023-07-08T10:15:34;8.05;;;3.63;;
75772;SDS011;64381;0.000;0.000;2023-07-08T10:18:03;7.32;;;3.60;;
75772;SDS011;64381;0.000;0.000;2023-07-08T10:20:29;7.20;;;3.43;;
75772;SDS011;64381;0.000;0.000;2023-07-08T10:23:19;8.70;;;3.70;;
75772;SDS011;64381;0.000;0.000;2023-07-08T10:25:58;8.32;;;3.65;;
75772;SDS011;64381;0.000;0.000;2023-07-08T10:28:34;6.60;;;3.40;;
75772;SDS011;64381;0.000;0.000;2023-07-08T10:36:50;6.90;;;3.58;;
75772;SDS011;64381;0.000;0.000;2023-07-08T10:39:28;6.95;;;3.80;;
75772;SDS011;64381;0.000;0.000;2023-07-08T10:42:11;8.33;;;3.73;;
75772;SDS011;64381;0.000;0.000;2023-07-08T10:45:02;7.93;;;3.65;;
75772;SDS011;64381;0.000;0.000;2023-07-08T10:47:42;8.15;;;3.88;;
75772;SDS011;64381;0.000;0.000;2023-07-08T11:09:27;6.70;;;3.40;;
75772;SDS011;64381;0.000;0.000;2023-07-08T11:14:49;7.85;;;3.67;;
75772;SDS011;64381;0.000;0.000;2023-07-08T11:17:31;6.68;;;3.72;;
75772;SDS011;64381;0.000;0.000;2023-07-08T11:20:15;8.63;;;3.45;;
75772;SDS011;64381;0.000;0.000;2023-07-08T11:25:22;6.63;;;3.35;;
75772;SDS011;64381;0.000;0.000;2023-07-08T11:27:51;7.60;;;3.72;;
75772;SDS011;64381;0.000;0.000;2023-07-08T11:30:21;6.78;;;3.47;;
75772;SDS011;64381;0.000;0.000;2023-07-08T11:32:48;7.03;;;3.50;;
75772;SDS011;64381;0.000;0.000;2023-07-08T11:35:23;7.20;;;3.50;;
75772;SDS011;64381;0.000;0.000;2023-07-08T11:37:57;6.55;;;3.75;;
75772;SDS011;64381;0.000;0.000;2023-07-08T11:40:23;7.40;;;3.80;;
75772;SDS011;64381;0.000;0.000;2023-07-08T11:42:49;7.40;;;3.92;;
75772;SDS011;64381;0.000;0.000;2023-07-08T12:49:47;7.50;;;3.90;;
75772;SDS011;64381;0.000;0.000;2023-07-08T12:52:18;7.37;;;3.80;;
75772;SDS011;64381;0.000;0.000;2023-07-08T12:54:48;7.20;;;3.87;;
75772;SDS011;64381;0.000;0.000;2023-07-08T12:57:14;7.30;;;3.50;;
75772;SDS011;64381;0.000;0.000;2023-07-08T12:59:41;6.97;;;3.60;;
75772;SDS011;64381;0.000;0.000;2023-07-08T13:02:10;6.60;;;3.53;;
75772;SDS011;64381;0.000;0.000;2023-07-08T13:07:40;6.90;;;3.75;;
75772;SDS011;64381;0.000;0.000;2023-07-08T13:10:13;6.93;;;3.55;;
75772;SDS011;64381;0.000;0.000;2023-07-08T13:12:42;6.72;;;3.33;;
75772;SDS011;64381;0.000;0.000;2023-07-08T13:15:13;6.87;;;3.50;;
75772;SDS011;64381;0.000;0.000;2023-07-08T13:17:46;8.05;;;3.95;;
75772;SDS011;64381;0.000;0.000;2023-07-08T13:20:15;7.20;;;3.67;;
75772;SDS011;64381;0.000;0.000;2023-07-08T13:22:41;7.45;;;3.75;;
75772;SDS011;64381;0.000;0.000;2023-07-08T13:25:09;7.00;;;3.75;;
75772;SDS011;64381;0.000;0.000;2023-07-08T13:27:39;7.37;;;3.33;;
75772;SDS011;64381;0.000;0.000;2023-07-08T13:30:10;6.70;;;3.60;;
75772;SDS011;64381;0.000;0.000;2023-07-08T13:32:41;6.32;;;3.30;;
75772;SDS011;64381;0.000;0.000;2023-07-08T13:35:20;7.00;;;3.57;;
75772;SDS011;64381;0.000;0.000;2023-07-08T13:37:47;7.13;;;3.90;;
75772;SDS011;64381;0.000;0.000;2023-07-08T13:40:12;6.33;;;3.60;;
75772;SDS011;64381;0.000;0.000;2023-07-08T13:42:37;6.83;;;3.50;;
75772;SDS011;64381;0.000;0.000;2023-07-08T14:49:43;7.73;;;3.50;;
75772;SDS011;64381;0.000;0.000;2023-07-08T14:52:08;8.02;;;3.67;;
75772;SDS011;64381;0.000;0.000;2023-07-08T14:54:33;6.37;;;3.33;;
75772;SDS011;64381;0.000;0.000;2023-07-08T14:56:59;6.03;;;3.30;;
75772;SDS011;64381;0.000;0.000;2023-07-08T14:59:27;6.90;;;3.30;;
75772;SDS011;64381;0.000;0.000;2023-07-08T15:01:54;6.55;;;3.55;;
75772;SDS011;64381;0.000;0.000;2023-07-08T15:04:21;6.88;;;3.70;;
75772;SDS011;64381;0.000;0.000;2023-07-08T15:06:46;6.80;;;3.70;;
75772;SDS011;64381;0.000;0.000;2023-07-08T15:09:12;6.70;;;3.30;;
75772;SDS011;64381;0.000;0.000;2023-07-08T15:11:38;7.10;;;3.35;;
75772;SDS011;64381;0.000;0.000;2023-07-08T15:14:09;6.93;;;3.53;;
75772;SDS011;64381;0.000;0.000;2023-07-08T15:16:42;6.97;;;3.28;;
75772;SDS011;64381;0.000;0.000;2023-07-08T15:19:09;6.87;;;3.43;;
75772;SDS011;64381;0.000;0.000;2023-07-08T15:21:34;6.65;;;3.50;;
75772;SDS011;64381;0.000;0.000;2023-07-08T15:24:00;6.13;;;3.03;;
75772;SDS011;64381;0.000;0.000;2023-07-08T15:26:25;6.83;;;3.33;;
75772;SDS011;64381;0.000;0.000;2023-07-08T15:28:51;7.35;;;3.50;;
75772;SDS011;64381;0.000;0.000;2023-07-08T15:31:17;6.20;;;3.30;;
75772;SDS011;64381;0.000;0.000;2023-07-08T15:33:45;6.90;;;3.55;;
75772;SDS011;64381;0.000;0.000;2023-07-08T15:36:10;6.30;;;3.27;;
75772;SDS011;64381;0.000;0.000;2023-07-08T15:38:36;6.22;;;3.00;;
75772;SDS011;64381;0.000;0.000;2023-07-08T15:41:01;6.90;;;3.40;;
75772;SDS011;64381;0.000;0.000;2023-07-08T15:43:27;6.10;;;3.23;;
75772;SDS011;64381;0.000;0.000;2023-07-08T15:45:53;5.75;;;2.90;;
75772;SDS011;64381;0.000;0.000;2023-07-08T15:48:18;6.53;;;3.40;;
75772;SDS011;64381;0.000;0.000;2023-07-08T15:50:43;6.03;;;3.20;;
75772;SDS011;64381;0.000;0.000;2023-07-08T15:53:09;6.53;;;3.33;;
75772;SDS011;64381;0.000;0.000;2023-07-08T15:55:36;6.55;;;3.50;;
75772;SDS011;64381;0.000;0.000;2023-07-08T15:58:05;6.50;;;3.53;;
75772;SDS011;64381;0.000;0.000;2023-07-08T16:00:34;6.70;;;3.25;;
75772;SDS011;64381;0.000;0.000;2023-07-08T16:03:09;6.38;;;3.38;;
75772;SDS011;64381;0.000;0.000;2023-07-08T16:05:52;6.85;;;3.45;;
75772;SDS011;64381;0.000;0.000;2023-07-08T16:08:18;7.45;;;3.28;;
75772;SDS011;64381;0.000;0.000;2023-07-08T16:10:44;6.50;;;3.10;;
75772;SDS011;64381;0.000;0.000;2023-07-08T16:13:22;6.63;;;3.25;;
75772;SDS011;64381;0.000;0.000;2023-07-08T16:15:51;6.32;;;3.38;;
75772;SDS011;64381;0.000;0.000;2023-07-08T16:18:16;7.33;;;3.40;;
75772;SDS011;64381;0.000;0.000;2023-07-08T16:20:41;7.13;;;3.40;;
75772;SDS011;64381;0.000;0.000;2023-07-08T16:23:06;9.70;;;3.60;;
75772;SDS011;64381;0.000;0.000;2023-07-08T16:25:33;7.83;;;3.40;;
75772;SDS011;64381;0.000;0.000;2023-07-08T16:28:06;8.15;;;3.50;;
75772;SDS011;64381;0.000;0.000;2023-07-08T16:30:31;6.70;;;3.17;;
75772;SDS011;64381;0.000;0.000;2023-07-08T16:32:56;7.73;;;3.40;;
75772;SDS011;64381;0.000;0.000;2023-07-08T16:35:22;6.27;;;3.03;;
75772;SDS011;64381;0.000;0.000;2023-07-08T16:37:48;8.95;;;3.35;;
75772;SDS011;64381;0.000;0.000;2023-07-08T16:40:17;6.47;;;3.20;;
75772;SDS011;64381;0.000;0.000;2023-07-08T16:42:48;8.67;;;3.60;;
75772;SDS011;64381;0.000;0.000;2023-07-08T16:45:16;8.18;;;3.25;;
75772;SDS011;64381;0.000;0.000;2023-07-08T16:47:43;7.18;;;3.15;;
75772;SDS011;64381;0.000;0.000;2023-07-08T16:50:09;6.32;;;3.03;;
75772;SDS011;64381;0.000;0.000;2023-07-08T16:52:35;10.05;;;3.40;;
75772;SDS011;64381;0.000;0.000;2023-07-08T16:55:02;7.03;;;3.10;;
75772;SDS011;64381;0.000;0.000;2023-07-08T16:57:38;15.02;;;3.80;;
75772;SDS011;64381;0.000;0.000;2023-07-08T17:00:04;15.53;;;3.60;;
75772;SDS011;64381;0.000;0.000;2023-07-08T17:02:30;15.25;;;3.42;;
75772;SDS011;64381;0.000;0.000;2023-07-08T17:04:58;10.63;;;4.00;;
75772;SDS011;64381;0.000;0.000;2023-07-08T17:07:23;10.57;;;3.90;;
75772;SDS011;64381;0.000;0.000;2023-07-08T17:09:48;12.27;;;3.97;;
75772;SDS011;64381;0.000;0.000;2023-07-08T17:12:14;10.30;;;3.37;;
75772;SDS011;64381;0.000;0.000;2023-07-08T17:14:39;9.73;;;3.33;;
75772;SDS011;64381;0.000;0.000;2023-07-08T17:17:04;7.53;;;4.10;;
75772;SDS011;64381;0.000;0.000;2023-07-08T17:19:35;8.02;;;3.53;;
75772;SDS011;64381;0.000;0.000;2023-07-08T17:22:00;8.57;;;3.50;;
75772;SDS011;64381;0.000;0.000;2023-07-08T17:24:25;8.90;;;3.50;;
75772;SDS011;64381;0.000;0.000;2023-07-08T17:26:50;12.50;;;3.37;;
75772;SDS011;64381;0.000;0.000;2023-07-08T17:29:15;12.60;;;3.40;;
75772;SDS011;64381;0.000;0.000;2023-07-08T17:31:41;7.47;;;3.40;;
75772;SDS011;64381;0.000;0.000;2023-07-08T18:36:13;6.25;;;3.00;;
75772;SDS011;64381;0.000;0.000;2023-07-08T18:38:40;6.70;;;3.00;;
75772;SDS011;64381;0.000;0.000;2023-07-08T18:41:09;6.30;;;3.20;;
75772;SDS011;64381;0.000;0.000;2023-07-08T18:43:47;6.07;;;2.83;;
75772;SDS011;64381;0.000;0.000;2023-07-08T18:46:13;7.05;;;3.15;;
75772;SDS011;64381;0.000;0.000;2023-07-08T18:48:40;7.75;;;3.10;;
75772;SDS011;64381;0.000;0.000;2023-07-08T18:51:13;7.47;;;3.00;;
75772;SDS011;64381;0.000;0.000;2023-07-08T18:53:40;6.60;;;3.10;;
75772;SDS011;64381;0.000;0.000;2023-07-08T18:56:10;6.13;;;3.20;;
75772;SDS011;64381;0.000;0.000;2023-07-08T18:58:37;6.50;;;3.30;;
75772;SDS011;64381;0.000;0.000;2023-07-08T19:01:02;6.27;;;2.67;;
75772;SDS011;64381;0.000;0.000;2023-07-08T19:03:28;6.83;;;3.30;;